sensor_id;sensor_type;location;lat;lon;timestamp;P1;durP1;ratioP1;P2;durP2;ratioP2
71253;SDS011;59019;47.638;18.966;2023-05-29T00:01:35;5.30;;;2.30;;
71253;SDS011;59019;47.638;18.966;2023-05-29T00:04:01;7.93;;;2.35;;
71253;SDS011;59019;47.638;18.966;2023-05-29T00:06:26;6.57;;;2.80;;
71253;SDS011;59019;47.638;18.966;2023-05-29T00:08:52;7.40;;;2.83;;
71253;SDS011;59019;47.638;18.966;2023-05-29T00:11:18;7.43;;;2.87;;
71253;SDS011;59019;47.638;18.966;2023-05-29T00:13:43;7.60;;;2.60;;
71253;SDS011;59019;47.638;18.966;2023-05-29T00:16:09;7.37;;;2.97;;
71253;SDS011;59019;47.638;18.966;2023-05-29T00:18:35;6.77;;;2.30;;
71253;SDS011;59019;47.638;18.966;2023-05-29T00:21:02;7.50;;;2.80;;
71253;SDS011;59019;47.638;18.966;2023-05-29T00:23:27;6.35;;;2.67;;
71253;SDS011;59019;47.638;18.966;2023-05-29T00:25:53;6.00;;;2.43;;
71253;SDS011;59019;47.638;18.966;2023-05-29T00:28:19;7.47;;;2.73;;
71253;SDS011;59019;47.638;18.966;2023-05-29T00:30:45;6.30;;;2.75;;
71253;SDS011;59019;47.638;18.966;2023-05-29T00:33:11;8.40;;;2.63;;
71253;SDS011;59019;47.638;18.966;2023-05-29T00:35:37;6.70;;;2.53;;
71253;SDS011;59019;47.638;18.966;2023-05-29T00:38:03;7.57;;;2.63;;
71253;SDS011;59019;47.638;18.966;2023-05-29T00:40:29;6.20;;;2.65;;
71253;SDS011;59019;47.638;18.966;2023-05-29T00:42:54;7.00;;;2.80;;
71253;SDS011;59019;47.638;18.966;2023-05-29T00:45:20;6.95;;;2.75;;
71253;SDS011;59019;47.638;18.966;2023-05-29T00:47:45;6.17;;;2.23;;
71253;SDS011;59019;47.638;18.966;2023-05-29T00:50:11;6.25;;;2.65;;
71253;SDS011;59019;47.638;18.966;2023-05-29T00:52:39;6.90;;;2.60;;
71253;SDS011;59019;47.638;18.966;2023-05-29T00:55:06;7.20;;;2.80;;
71253;SDS011;59019;47.638;18.966;2023-05-29T00:57:34;7.97;;;3.13;;
71253;SDS011;59019;47.638;18.966;2023-05-29T01:00:00;6.18;;;2.55;;
71253;SDS011;59019;47.638;18.966;2023-05-29T01:02:33;7.15;;;2.60;;
71253;SDS011;59019;47.638;18.966;2023-05-29T01:05:01;7.20;;;3.00;;
71253;SDS011;59019;47.638;18.966;2023-05-29T01:07:27;6.95;;;2.83;;
71253;SDS011;59019;47.638;18.966;2023-05-29T01:09:52;6.43;;;2.35;;
71253;SDS011;59019;47.638;18.966;2023-05-29T01:29:02;8.38;;;3.10;;
71253;SDS011;59019;47.638;18.966;2023-05-29T01:31:30;6.85;;;2.78;;
71253;SDS011;59019;47.638;18.966;2023-05-29T01:33:58;7.23;;;3.20;;
71253;SDS011;59019;47.638;18.966;2023-05-29T01:36:27;7.57;;;2.80;;
71253;SDS011;59019;47.638;18.966;2023-05-29T01:38:54;7.57;;;2.72;;
71253;SDS011;59019;47.638;18.966;2023-05-29T01:41:22;7.27;;;2.87;;
71253;SDS011;59019;47.638;18.966;2023-05-29T01:43:49;7.25;;;2.55;;
71253;SDS011;59019;47.638;18.966;2023-05-29T01:46:16;8.63;;;3.55;;
71253;SDS011;59019;47.638;18.966;2023-05-29T01:48:42;6.95;;;2.80;;
71253;SDS011;59019;47.638;18.966;2023-05-29T01:51:08;7.87;;;2.90;;
71253;SDS011;59019;47.638;18.966;2023-05-29T01:53:35;9.20;;;3.67;;
71253;SDS011;59019;47.638;18.966;2023-05-29T01:56:01;8.70;;;3.10;;
71253;SDS011;59019;47.638;18.966;2023-05-29T01:58:27;6.80;;;2.70;;
71253;SDS011;59019;47.638;18.966;2023-05-29T02:00:54;8.82;;;3.38;;
71253;SDS011;59019;47.638;18.966;2023-05-29T02:03:20;8.02;;;3.63;;
71253;SDS011;59019;47.638;18.966;2023-05-29T02:05:46;9.43;;;3.40;;
71253;SDS011;59019;47.638;18.966;2023-05-29T02:08:12;6.80;;;2.80;;
71253;SDS011;59019;47.638;18.966;2023-05-29T02:10:37;7.73;;;2.90;;
71253;SDS011;59019;47.638;18.966;2023-05-29T02:13:03;6.50;;;2.85;;
71253;SDS011;59019;47.638;18.966;2023-05-29T02:15:28;5.93;;;2.92;;
71253;SDS011;59019;47.638;18.966;2023-05-29T02:17:54;7.20;;;2.83;;
71253;SDS011;59019;47.638;18.966;2023-05-29T02:20:20;6.60;;;2.83;;
71253;SDS011;59019;47.638;18.966;2023-05-29T02:22:45;7.37;;;3.00;;
71253;SDS011;59019;47.638;18.966;2023-05-29T02:25:11;7.27;;;3.70;;
71253;SDS011;59019;47.638;18.966;2023-05-29T02:27:36;8.60;;;3.42;;
71253;SDS011;59019;47.638;18.966;2023-05-29T02:30:02;6.63;;;3.10;;
71253;SDS011;59019;47.638;18.966;2023-05-29T02:32:28;7.53;;;3.03;;
71253;SDS011;59019;47.638;18.966;2023-05-29T02:34:54;7.60;;;2.97;;
71253;SDS011;59019;47.638;18.966;2023-05-29T02:37:20;7.32;;;3.30;;
71253;SDS011;59019;47.638;18.966;2023-05-29T02:39:45;6.47;;;2.73;;
71253;SDS011;59019;47.638;18.966;2023-05-29T02:42:11;8.37;;;3.10;;
71253;SDS011;59019;47.638;18.966;2023-05-29T02:44:36;6.97;;;2.72;;
71253;SDS011;59019;47.638;18.966;2023-05-29T02:47:02;5.63;;;2.72;;
71253;SDS011;59019;47.638;18.966;2023-05-29T02:49:27;7.20;;;2.93;;
71253;SDS011;59019;47.638;18.966;2023-05-29T02:51:53;7.07;;;2.80;;
71253;SDS011;59019;47.638;18.966;2023-05-29T02:54:22;7.18;;;2.50;;
71253;SDS011;59019;47.638;18.966;2023-05-29T02:56:49;7.82;;;2.75;;
71253;SDS011;59019;47.638;18.966;2023-05-29T02:59:15;7.95;;;2.70;;
71253;SDS011;59019;47.638;18.966;2023-05-29T03:01:41;6.37;;;2.57;;
71253;SDS011;59019;47.638;18.966;2023-05-29T03:04:07;8.25;;;2.95;;
71253;SDS011;59019;47.638;18.966;2023-05-29T03:06:34;6.72;;;3.10;;
71253;SDS011;59019;47.638;18.966;2023-05-29T03:08:59;7.77;;;3.03;;
71253;SDS011;59019;47.638;18.966;2023-05-29T03:11:25;7.50;;;3.27;;
71253;SDS011;59019;47.638;18.966;2023-05-29T03:13:50;7.95;;;3.20;;
71253;SDS011;59019;47.638;18.966;2023-05-29T03:16:16;7.63;;;3.57;;
71253;SDS011;59019;47.638;18.966;2023-05-29T03:18:42;7.40;;;3.50;;
71253;SDS011;59019;47.638;18.966;2023-05-29T03:21:08;7.10;;;3.13;;
71253;SDS011;59019;47.638;18.966;2023-05-29T03:23:33;8.63;;;3.33;;
71253;SDS011;59019;47.638;18.966;2023-05-29T03:25:59;7.77;;;3.27;;
71253;SDS011;59019;47.638;18.966;2023-05-29T03:28:25;7.57;;;3.08;;
71253;SDS011;59019;47.638;18.966;2023-05-29T03:30:50;8.90;;;3.73;;
71253;SDS011;59019;47.638;18.966;2023-05-29T03:33:16;7.70;;;3.25;;
71253;SDS011;59019;47.638;18.966;2023-05-29T03:35:42;7.90;;;3.20;;
71253;SDS011;59019;47.638;18.966;2023-05-29T03:38:07;7.63;;;3.40;;
71253;SDS011;59019;47.638;18.966;2023-05-29T03:40:33;9.20;;;3.70;;
71253;SDS011;59019;47.638;18.966;2023-05-29T03:42:58;8.05;;;3.53;;
71253;SDS011;59019;47.638;18.966;2023-05-29T03:45:24;8.90;;;3.40;;
71253;SDS011;59019;47.638;18.966;2023-05-29T03:47:49;7.37;;;3.30;;
71253;SDS011;59019;47.638;18.966;2023-05-29T03:50:15;7.38;;;3.40;;
71253;SDS011;59019;47.638;18.966;2023-05-29T03:52:41;8.60;;;3.67;;
71253;SDS011;59019;47.638;18.966;2023-05-29T03:55:08;8.60;;;3.40;;
71253;SDS011;59019;47.638;18.966;2023-05-29T03:57:38;8.35;;;3.20;;
71253;SDS011;59019;47.638;18.966;2023-05-29T04:00:06;8.20;;;3.40;;
71253;SDS011;59019;47.638;18.966;2023-05-29T04:02:38;7.78;;;3.45;;
71253;SDS011;59019;47.638;18.966;2023-05-29T04:05:04;9.13;;;3.83;;
71253;SDS011;59019;47.638;18.966;2023-05-29T04:07:31;7.53;;;3.38;;
71253;SDS011;59019;47.638;18.966;2023-05-29T04:09:57;9.25;;;4.00;;
71253;SDS011;59019;47.638;18.966;2023-05-29T04:12:23;7.43;;;3.40;;
71253;SDS011;59019;47.638;18.966;2023-05-29T04:14:49;8.30;;;3.23;;
71253;SDS011;59019;47.638;18.966;2023-05-29T04:17:14;7.82;;;3.70;;
71253;SDS011;59019;47.638;18.966;2023-05-29T04:19:40;8.93;;;3.60;;
71253;SDS011;59019;47.638;18.966;2023-05-29T04:22:05;6.60;;;3.43;;
71253;SDS011;59019;47.638;18.966;2023-05-29T04:24:31;8.63;;;3.40;;
71253;SDS011;59019;47.638;18.966;2023-05-29T04:26:58;8.75;;;4.07;;
71253;SDS011;59019;47.638;18.966;2023-05-29T04:29:25;8.40;;;3.47;;
71253;SDS011;59019;47.638;18.966;2023-05-29T04:31:51;9.82;;;3.35;;
71253;SDS011;59019;47.638;18.966;2023-05-29T04:34:17;8.30;;;3.90;;
71253;SDS011;59019;47.638;18.966;2023-05-29T04:36:43;7.23;;;3.60;;
71253;SDS011;59019;47.638;18.966;2023-05-29T04:39:08;8.85;;;3.40;;
71253;SDS011;59019;47.638;18.966;2023-05-29T04:41:34;8.70;;;3.40;;
71253;SDS011;59019;47.638;18.966;2023-05-29T04:44:00;8.93;;;3.60;;
71253;SDS011;59019;47.638;18.966;2023-05-29T04:46:26;8.43;;;3.75;;
71253;SDS011;59019;47.638;18.966;2023-05-29T04:48:52;9.07;;;3.90;;
71253;SDS011;59019;47.638;18.966;2023-05-29T04:51:21;8.18;;;3.78;;
71253;SDS011;59019;47.638;18.966;2023-05-29T04:53:47;7.55;;;3.38;;
71253;SDS011;59019;47.638;18.966;2023-05-29T04:56:16;7.73;;;3.50;;
71253;SDS011;59019;47.638;18.966;2023-05-29T04:58:41;8.25;;;3.53;;
71253;SDS011;59019;47.638;18.966;2023-05-29T05:01:07;6.85;;;3.75;;
71253;SDS011;59019;47.638;18.966;2023-05-29T05:03:34;6.57;;;3.50;;
71253;SDS011;59019;47.638;18.966;2023-05-29T05:06:00;7.20;;;3.47;;
71253;SDS011;59019;47.638;18.966;2023-05-29T05:08:31;9.73;;;3.90;;
71253;SDS011;59019;47.638;18.966;2023-05-29T05:10:58;7.65;;;3.60;;
71253;SDS011;59019;47.638;18.966;2023-05-29T05:13:24;7.00;;;3.60;;
71253;SDS011;59019;47.638;18.966;2023-05-29T05:15:50;9.07;;;3.60;;
71253;SDS011;59019;47.638;18.966;2023-05-29T05:18:16;9.70;;;4.10;;
71253;SDS011;59019;47.638;18.966;2023-05-29T05:20:42;7.88;;;4.00;;
71253;SDS011;59019;47.638;18.966;2023-05-29T05:23:07;7.77;;;3.37;;
71253;SDS011;59019;47.638;18.966;2023-05-29T05:25:33;8.10;;;4.00;;
71253;SDS011;59019;47.638;18.966;2023-05-29T05:28:00;9.70;;;4.20;;
71253;SDS011;59019;47.638;18.966;2023-05-29T05:30:28;8.07;;;3.60;;
71253;SDS011;59019;47.638;18.966;2023-05-29T05:32:53;8.23;;;3.90;;
71253;SDS011;59019;47.638;18.966;2023-05-29T05:35:19;11.05;;;4.00;;
71253;SDS011;59019;47.638;18.966;2023-05-29T05:37:45;6.97;;;4.10;;
71253;SDS011;59019;47.638;18.966;2023-05-29T05:40:11;6.97;;;3.60;;
71253;SDS011;59019;47.638;18.966;2023-05-29T05:42:37;8.55;;;4.10;;
71253;SDS011;59019;47.638;18.966;2023-05-29T05:45:03;8.77;;;3.80;;
71253;SDS011;59019;47.638;18.966;2023-05-29T05:47:30;7.03;;;4.00;;
71253;SDS011;59019;47.638;18.966;2023-05-29T05:49:56;8.23;;;3.80;;
71253;SDS011;59019;47.638;18.966;2023-05-29T05:52:22;9.02;;;4.10;;
71253;SDS011;59019;47.638;18.966;2023-05-29T05:54:48;7.90;;;3.67;;
71253;SDS011;59019;47.638;18.966;2023-05-29T05:57:13;7.37;;;3.83;;
71253;SDS011;59019;47.638;18.966;2023-05-29T05:59:39;9.90;;;3.85;;
71253;SDS011;59019;47.638;18.966;2023-05-29T06:02:05;8.35;;;4.35;;
71253;SDS011;59019;47.638;18.966;2023-05-29T06:04:31;7.00;;;3.90;;
71253;SDS011;59019;47.638;18.966;2023-05-29T06:06:56;6.50;;;3.50;;
71253;SDS011;59019;47.638;18.966;2023-05-29T06:09:22;7.40;;;4.10;;
71253;SDS011;59019;47.638;18.966;2023-05-29T06:11:47;7.35;;;3.63;;
71253;SDS011;59019;47.638;18.966;2023-05-29T06:14:13;7.57;;;3.60;;
71253;SDS011;59019;47.638;18.966;2023-05-29T06:16:39;9.35;;;3.45;;
71253;SDS011;59019;47.638;18.966;2023-05-29T06:19:05;7.38;;;3.75;;
71253;SDS011;59019;47.638;18.966;2023-05-29T06:21:31;7.30;;;3.20;;
71253;SDS011;59019;47.638;18.966;2023-05-29T06:23:57;6.30;;;3.22;;
71253;SDS011;59019;47.638;18.966;2023-05-29T06:26:23;9.60;;;3.50;;
71253;SDS011;59019;47.638;18.966;2023-05-29T06:28:52;7.38;;;3.53;;
71253;SDS011;59019;47.638;18.966;2023-05-29T06:31:18;6.95;;;3.35;;
71253;SDS011;59019;47.638;18.966;2023-05-29T06:33:44;7.20;;;3.20;;
71253;SDS011;59019;47.638;18.966;2023-05-29T06:36:10;7.85;;;3.60;;
71253;SDS011;59019;47.638;18.966;2023-05-29T06:38:36;7.38;;;3.58;;
71253;SDS011;59019;47.638;18.966;2023-05-29T06:41:02;5.78;;;3.33;;
71253;SDS011;59019;47.638;18.966;2023-05-29T06:43:28;7.15;;;3.17;;
71253;SDS011;59019;47.638;18.966;2023-05-29T06:45:54;6.63;;;3.70;;
71253;SDS011;59019;47.638;18.966;2023-05-29T06:48:20;7.78;;;3.55;;
71253;SDS011;59019;47.638;18.966;2023-05-29T06:50:49;8.17;;;3.67;;
71253;SDS011;59019;47.638;18.966;2023-05-29T06:53:14;7.68;;;3.60;;
71253;SDS011;59019;47.638;18.966;2023-05-29T06:55:40;7.37;;;3.40;;
71253;SDS011;59019;47.638;18.966;2023-05-29T06:58:06;7.43;;;3.45;;
71253;SDS011;59019;47.638;18.966;2023-05-29T07:00:32;8.43;;;3.33;;
71253;SDS011;59019;47.638;18.966;2023-05-29T07:02:57;7.97;;;3.63;;
71253;SDS011;59019;47.638;18.966;2023-05-29T07:05:23;8.57;;;3.80;;
71253;SDS011;59019;47.638;18.966;2023-05-29T07:07:48;13.43;;;3.72;;
71253;SDS011;59019;47.638;18.966;2023-05-29T07:10:14;7.37;;;3.80;;
71253;SDS011;59019;47.638;18.966;2023-05-29T07:12:40;8.05;;;3.60;;
71253;SDS011;59019;47.638;18.966;2023-05-29T07:15:06;6.07;;;3.60;;
71253;SDS011;59019;47.638;18.966;2023-05-29T07:17:32;8.82;;;3.72;;
71253;SDS011;59019;47.638;18.966;2023-05-29T07:19:57;7.70;;;3.30;;
71253;SDS011;59019;47.638;18.966;2023-05-29T07:22:23;7.25;;;3.30;;
71253;SDS011;59019;47.638;18.966;2023-05-29T07:24:48;9.27;;;3.37;;
71253;SDS011;59019;47.638;18.966;2023-05-29T07:27:13;7.13;;;3.30;;
71253;SDS011;59019;47.638;18.966;2023-05-29T07:29:39;7.47;;;3.50;;
71253;SDS011;59019;47.638;18.966;2023-05-29T07:32:05;6.75;;;3.50;;
71253;SDS011;59019;47.638;18.966;2023-05-29T07:34:30;6.77;;;3.67;;
71253;SDS011;59019;47.638;18.966;2023-05-29T07:36:57;8.20;;;3.90;;
71253;SDS011;59019;47.638;18.966;2023-05-29T07:39:30;7.20;;;3.60;;
71253;SDS011;59019;47.638;18.966;2023-05-29T07:41:56;7.63;;;3.63;;
71253;SDS011;59019;47.638;18.966;2023-05-29T07:44:22;7.35;;;3.63;;
71253;SDS011;59019;47.638;18.966;2023-05-29T07:46:48;8.57;;;3.40;;
71253;SDS011;59019;47.638;18.966;2023-05-29T07:49:13;7.55;;;3.50;;
71253;SDS011;59019;47.638;18.966;2023-05-29T07:51:40;6.47;;;3.30;;
71253;SDS011;59019;47.638;18.966;2023-05-29T07:54:05;7.38;;;3.88;;
71253;SDS011;59019;47.638;18.966;2023-05-29T07:56:31;7.43;;;3.97;;
71253;SDS011;59019;47.638;18.966;2023-05-29T07:58:58;7.80;;;4.10;;
71253;SDS011;59019;47.638;18.966;2023-05-29T08:01:25;9.23;;;3.85;;
71253;SDS011;59019;47.638;18.966;2023-05-29T08:03:51;11.50;;;3.83;;
71253;SDS011;59019;47.638;18.966;2023-05-29T08:06:17;8.83;;;3.77;;
71253;SDS011;59019;47.638;18.966;2023-05-29T08:08:43;7.75;;;4.10;;
71253;SDS011;59019;47.638;18.966;2023-05-29T08:11:09;9.27;;;3.90;;
71253;SDS011;59019;47.638;18.966;2023-05-29T08:13:34;7.43;;;3.40;;
71253;SDS011;59019;47.638;18.966;2023-05-29T08:16:00;10.35;;;4.10;;
71253;SDS011;59019;47.638;18.966;2023-05-29T08:18:26;7.37;;;4.07;;
71253;SDS011;59019;47.638;18.966;2023-05-29T08:20:52;6.50;;;3.38;;
71253;SDS011;59019;47.638;18.966;2023-05-29T08:23:18;10.53;;;4.20;;
71253;SDS011;59019;47.638;18.966;2023-05-29T08:25:43;7.55;;;3.80;;
71253;SDS011;59019;47.638;18.966;2023-05-29T08:28:09;8.17;;;4.13;;
71253;SDS011;59019;47.638;18.966;2023-05-29T08:30:34;8.05;;;4.00;;
71253;SDS011;59019;47.638;18.966;2023-05-29T08:33:02;7.57;;;4.07;;
71253;SDS011;59019;47.638;18.966;2023-05-29T08:35:28;10.27;;;4.43;;
71253;SDS011;59019;47.638;18.966;2023-05-29T08:37:54;8.35;;;4.07;;
71253;SDS011;59019;47.638;18.966;2023-05-29T08:40:20;7.03;;;3.97;;
71253;SDS011;59019;47.638;18.966;2023-05-29T08:42:47;7.25;;;3.80;;
71253;SDS011;59019;47.638;18.966;2023-05-29T08:45:20;9.73;;;4.28;;
71253;SDS011;59019;47.638;18.966;2023-05-29T08:47:48;8.48;;;4.15;;
71253;SDS011;59019;47.638;18.966;2023-05-29T08:50:19;8.15;;;4.00;;
71253;SDS011;59019;47.638;18.966;2023-05-29T08:52:46;6.93;;;3.50;;
71253;SDS011;59019;47.638;18.966;2023-05-29T08:55:12;8.60;;;3.92;;
71253;SDS011;59019;47.638;18.966;2023-05-29T08:57:38;7.90;;;4.00;;
71253;SDS011;59019;47.638;18.966;2023-05-29T09:00:05;8.90;;;3.80;;
71253;SDS011;59019;47.638;18.966;2023-05-29T09:02:38;8.63;;;4.07;;
71253;SDS011;59019;47.638;18.966;2023-05-29T09:05:04;7.93;;;4.23;;
71253;SDS011;59019;47.638;18.966;2023-05-29T09:07:31;11.27;;;4.30;;
71253;SDS011;59019;47.638;18.966;2023-05-29T09:09:57;7.97;;;3.80;;
71253;SDS011;59019;47.638;18.966;2023-05-29T09:12:24;8.95;;;4.10;;
71253;SDS011;59019;47.638;18.966;2023-05-29T09:14:50;8.18;;;4.45;;
71253;SDS011;59019;47.638;18.966;2023-05-29T09:17:16;8.20;;;4.20;;
71253;SDS011;59019;47.638;18.966;2023-05-29T09:19:41;9.37;;;4.23;;
71253;SDS011;59019;47.638;18.966;2023-05-29T09:22:11;8.45;;;4.35;;
71253;SDS011;59019;47.638;18.966;2023-05-29T09:24:41;8.02;;;4.50;;
71253;SDS011;59019;47.638;18.966;2023-05-29T09:27:08;8.87;;;4.20;;
71253;SDS011;59019;47.638;18.966;2023-05-29T09:29:44;7.32;;;4.25;;
71253;SDS011;59019;47.638;18.966;2023-05-29T09:32:17;9.85;;;4.72;;
71253;SDS011;59019;47.638;18.966;2023-05-29T09:34:43;9.13;;;3.90;;
71253;SDS011;59019;47.638;18.966;2023-05-29T09:37:10;9.68;;;4.40;;
71253;SDS011;59019;47.638;18.966;2023-05-29T09:39:49;10.73;;;4.70;;
71253;SDS011;59019;47.638;18.966;2023-05-29T09:42:18;8.18;;;4.75;;
71253;SDS011;59019;47.638;18.966;2023-05-29T09:44:45;9.50;;;4.65;;
71253;SDS011;59019;47.638;18.966;2023-05-29T09:47:17;7.05;;;4.28;;
71253;SDS011;59019;47.638;18.966;2023-05-29T09:49:43;8.05;;;4.30;;
71253;SDS011;59019;47.638;18.966;2023-05-29T09:52:13;8.60;;;4.90;;
71253;SDS011;59019;47.638;18.966;2023-05-29T09:54:44;9.32;;;4.57;;
71253;SDS011;59019;47.638;18.966;2023-05-29T09:57:13;9.75;;;4.72;;
71253;SDS011;59019;47.638;18.966;2023-05-29T09:59:41;8.23;;;4.60;;
71253;SDS011;59019;47.638;18.966;2023-05-29T10:02:10;10.25;;;4.53;;
71253;SDS011;59019;47.638;18.966;2023-05-29T10:04:37;6.80;;;4.22;;
71253;SDS011;59019;47.638;18.966;2023-05-29T10:07:07;8.55;;;4.53;;
71253;SDS011;59019;47.638;18.966;2023-05-29T10:09:35;7.82;;;4.47;;
71253;SDS011;59019;47.638;18.966;2023-05-29T10:12:07;7.53;;;4.57;;
71253;SDS011;59019;47.638;18.966;2023-05-29T10:14:35;7.03;;;4.50;;
71253;SDS011;59019;47.638;18.966;2023-05-29T10:17:02;7.85;;;4.32;;
71253;SDS011;59019;47.638;18.966;2023-05-29T10:19:32;8.60;;;4.40;;
71253;SDS011;59019;47.638;18.966;2023-05-29T10:21:59;11.50;;;4.63;;
71253;SDS011;59019;47.638;18.966;2023-05-29T10:24:27;8.38;;;4.55;;
71253;SDS011;59019;47.638;18.966;2023-05-29T10:26:53;7.40;;;4.43;;
71253;SDS011;59019;47.638;18.966;2023-05-29T10:34:50;8.82;;;4.88;;
71253;SDS011;59019;47.638;18.966;2023-05-29T10:37:59;8.18;;;4.53;;
71253;SDS011;59019;47.638;18.966;2023-05-29T10:40:27;9.07;;;4.45;;
71253;SDS011;59019;47.638;18.966;2023-05-29T10:42:53;6.70;;;4.25;;
71253;SDS011;59019;47.638;18.966;2023-05-29T10:48:40;7.63;;;4.75;;
71253;SDS011;59019;47.638;18.966;2023-05-29T10:50:54;8.65;;;4.43;;
71253;SDS011;59019;47.638;18.966;2023-05-29T10:53:26;8.52;;;4.38;;
71253;SDS011;59019;47.638;18.966;2023-05-29T10:55:56;8.05;;;4.25;;
71253;SDS011;59019;47.638;18.966;2023-05-29T10:58:22;8.00;;;4.80;;
71253;SDS011;59019;47.638;18.966;2023-05-29T11:00:49;8.55;;;4.47;;
71253;SDS011;59019;47.638;18.966;2023-05-29T11:03:22;8.07;;;5.00;;
71253;SDS011;59019;47.638;18.966;2023-05-29T11:05:56;7.80;;;4.80;;
71253;SDS011;59019;47.638;18.966;2023-05-29T11:08:33;8.97;;;4.47;;
71253;SDS011;59019;47.638;18.966;2023-05-29T11:11:14;9.68;;;4.60;;
71253;SDS011;59019;47.638;18.966;2023-05-29T11:13:40;9.52;;;4.82;;
71253;SDS011;59019;47.638;18.966;2023-05-29T11:16:13;8.40;;;4.18;;
71253;SDS011;59019;47.638;18.966;2023-05-29T11:18:45;9.15;;;4.47;;
71253;SDS011;59019;47.638;18.966;2023-05-29T11:23:55;9.10;;;4.65;;
71253;SDS011;59019;47.638;18.966;2023-05-29T11:26:31;8.90;;;4.40;;
71253;SDS011;59019;47.638;18.966;2023-05-29T11:29:02;8.07;;;4.63;;
71253;SDS011;59019;47.638;18.966;2023-05-29T11:31:31;7.43;;;4.35;;
71253;SDS011;59019;47.638;18.966;2023-05-29T11:34:01;9.20;;;4.50;;
71253;SDS011;59019;47.638;18.966;2023-05-29T11:36:32;11.10;;;4.53;;
71253;SDS011;59019;47.638;18.966;2023-05-29T11:38:58;7.72;;;4.72;;
71253;SDS011;59019;47.638;18.966;2023-05-29T11:41:25;8.15;;;4.68;;
71253;SDS011;59019;47.638;18.966;2023-05-29T11:43:57;8.93;;;4.80;;
71253;SDS011;59019;47.638;18.966;2023-05-29T11:46:27;13.03;;;4.70;;
71253;SDS011;59019;47.638;18.966;2023-05-29T11:48:56;8.95;;;4.70;;
71253;SDS011;59019;47.638;18.966;2023-05-29T11:51:22;10.88;;;4.97;;
71253;SDS011;59019;47.638;18.966;2023-05-29T11:53:47;8.83;;;4.70;;
71253;SDS011;59019;47.638;18.966;2023-05-29T11:56:13;8.98;;;4.30;;
71253;SDS011;59019;47.638;18.966;2023-05-29T11:58:39;11.25;;;4.88;;
71253;SDS011;59019;47.638;18.966;2023-05-29T12:01:06;8.87;;;4.73;;
71253;SDS011;59019;47.638;18.966;2023-05-29T12:03:42;11.27;;;4.85;;
71253;SDS011;59019;47.638;18.966;2023-05-29T12:06:08;7.72;;;4.47;;
71253;SDS011;59019;47.638;18.966;2023-05-29T12:08:37;9.70;;;4.47;;
71253;SDS011;59019;47.638;18.966;2023-05-29T12:11:03;10.27;;;4.88;;
71253;SDS011;59019;47.638;18.966;2023-05-29T12:13:29;10.13;;;4.57;;
71253;SDS011;59019;47.638;18.966;2023-05-29T12:15:59;18.67;;;4.80;;
71253;SDS011;59019;47.638;18.966;2023-05-29T12:18:27;10.70;;;4.68;;
71253;SDS011;59019;47.638;18.966;2023-05-29T12:20:58;8.60;;;4.57;;
71253;SDS011;59019;47.638;18.966;2023-05-29T12:23:25;8.27;;;4.88;;
71253;SDS011;59019;47.638;18.966;2023-05-29T12:25:51;10.00;;;4.95;;
71253;SDS011;59019;47.638;18.966;2023-05-29T12:28:18;7.60;;;4.45;;
71253;SDS011;59019;47.638;18.966;2023-05-29T12:30:44;8.10;;;4.70;;
71253;SDS011;59019;47.638;18.966;2023-05-29T12:33:31;7.40;;;4.40;;
71253;SDS011;59019;47.638;18.966;2023-05-29T12:36:01;8.73;;;4.85;;
71253;SDS011;59019;47.638;18.966;2023-05-29T12:38:27;7.20;;;4.68;;
71253;SDS011;59019;47.638;18.966;2023-05-29T12:40:53;8.60;;;4.60;;
71253;SDS011;59019;47.638;18.966;2023-05-29T12:43:19;8.15;;;4.70;;
71253;SDS011;59019;47.638;18.966;2023-05-29T12:45:45;7.80;;;4.57;;
71253;SDS011;59019;47.638;18.966;2023-05-29T12:48:11;8.80;;;4.82;;
71253;SDS011;59019;47.638;18.966;2023-05-29T12:50:40;9.70;;;4.87;;
71253;SDS011;59019;47.638;18.966;2023-05-29T12:53:06;8.35;;;4.45;;
71253;SDS011;59019;47.638;18.966;2023-05-29T12:55:33;9.48;;;4.78;;
71253;SDS011;59019;47.638;18.966;2023-05-29T12:58:02;12.87;;;5.13;;
71253;SDS011;59019;47.638;18.966;2023-05-29T13:00:29;9.18;;;4.85;;
71253;SDS011;59019;47.638;18.966;2023-05-29T13:02:56;10.75;;;5.07;;
71253;SDS011;59019;47.638;18.966;2023-05-29T13:05:22;8.52;;;5.10;;
71253;SDS011;59019;47.638;18.966;2023-05-29T13:07:51;7.78;;;4.97;;
71253;SDS011;59019;47.638;18.966;2023-05-29T13:10:17;7.67;;;4.87;;
71253;SDS011;59019;47.638;18.966;2023-05-29T13:12:43;9.55;;;4.95;;
71253;SDS011;59019;47.638;18.966;2023-05-29T13:15:10;10.18;;;5.45;;
71253;SDS011;59019;47.638;18.966;2023-05-29T13:17:37;11.40;;;5.22;;
71253;SDS011;59019;47.638;18.966;2023-05-29T13:20:09;9.52;;;4.80;;
71253;SDS011;59019;47.638;18.966;2023-05-29T13:22:36;10.73;;;5.10;;
71253;SDS011;59019;47.638;18.966;2023-05-29T13:25:03;9.02;;;4.80;;
71253;SDS011;59019;47.638;18.966;2023-05-29T13:27:31;11.57;;;4.90;;
71253;SDS011;59019;47.638;18.966;2023-05-29T13:29:58;8.93;;;4.80;;
71253;SDS011;59019;47.638;18.966;2023-05-29T13:32:23;8.87;;;4.60;;
71253;SDS011;59019;47.638;18.966;2023-05-29T13:34:49;7.38;;;4.53;;
71253;SDS011;59019;47.638;18.966;2023-05-29T13:37:14;7.85;;;4.60;;
71253;SDS011;59019;47.638;18.966;2023-05-29T13:39:40;10.90;;;5.10;;
71253;SDS011;59019;47.638;18.966;2023-05-29T13:42:07;8.17;;;5.00;;
71253;SDS011;59019;47.638;18.966;2023-05-29T13:44:35;8.73;;;5.80;;
71253;SDS011;59019;47.638;18.966;2023-05-29T13:47:01;9.45;;;5.57;;
71253;SDS011;59019;47.638;18.966;2023-05-29T13:49:27;9.17;;;5.47;;
71253;SDS011;59019;47.638;18.966;2023-05-29T13:51:53;9.48;;;5.60;;
71253;SDS011;59019;47.638;18.966;2023-05-29T13:54:18;10.83;;;5.20;;
71253;SDS011;59019;47.638;18.966;2023-05-29T13:56:44;10.03;;;5.10;;
71253;SDS011;59019;47.638;18.966;2023-05-29T13:59:09;11.02;;;5.35;;
71253;SDS011;59019;47.638;18.966;2023-05-29T14:01:35;10.00;;;5.60;;
71253;SDS011;59019;47.638;18.966;2023-05-29T14:04:00;8.77;;;5.65;;
71253;SDS011;59019;47.638;18.966;2023-05-29T14:06:26;9.90;;;6.28;;
71253;SDS011;59019;47.638;18.966;2023-05-29T14:08:52;10.17;;;5.40;;
71253;SDS011;59019;47.638;18.966;2023-05-29T14:11:18;8.50;;;5.63;;
71253;SDS011;59019;47.638;18.966;2023-05-29T14:13:44;10.60;;;5.63;;
71253;SDS011;59019;47.638;18.966;2023-05-29T14:16:09;9.80;;;5.30;;
71253;SDS011;59019;47.638;18.966;2023-05-29T14:18:35;7.68;;;5.00;;
71253;SDS011;59019;47.638;18.966;2023-05-29T14:21:01;9.37;;;5.53;;
71253;SDS011;59019;47.638;18.966;2023-05-29T14:23:26;8.53;;;5.13;;
71253;SDS011;59019;47.638;18.966;2023-05-29T14:25:52;8.50;;;5.20;;
71253;SDS011;59019;47.638;18.966;2023-05-29T14:28:17;11.13;;;5.40;;
71253;SDS011;59019;47.638;18.966;2023-05-29T14:30:43;12.67;;;5.43;;
71253;SDS011;59019;47.638;18.966;2023-05-29T14:33:09;8.45;;;5.40;;
71253;SDS011;59019;47.638;18.966;2023-05-29T14:35:34;8.07;;;5.10;;
71253;SDS011;59019;47.638;18.966;2023-05-29T14:38:00;9.13;;;5.50;;
71253;SDS011;59019;47.638;18.966;2023-05-29T14:40:26;10.77;;;5.33;;
71253;SDS011;59019;47.638;18.966;2023-05-29T14:42:51;8.52;;;5.47;;
71253;SDS011;59019;47.638;18.966;2023-05-29T14:45:17;9.00;;;5.70;;
71253;SDS011;59019;47.638;18.966;2023-05-29T14:47:43;9.07;;;5.20;;
71253;SDS011;59019;47.638;18.966;2023-05-29T14:50:08;8.63;;;5.07;;
71253;SDS011;59019;47.638;18.966;2023-05-29T14:52:34;9.40;;;5.50;;
71253;SDS011;59019;47.638;18.966;2023-05-29T14:55:03;8.85;;;4.90;;
71253;SDS011;59019;47.638;18.966;2023-05-29T14:57:30;9.65;;;4.68;;
71253;SDS011;59019;47.638;18.966;2023-05-29T14:59:58;9.98;;;5.07;;